createdAt,value
2023-05-11T00:01:15.540Z,12.66
2023-05-11T00:04:19.683Z,12.68
2023-05-11T00:07:22.508Z,12.64
2023-05-11T00:10:25.222Z,12.62
2023-05-11T00:13:27.964Z,12.60
2023-05-11T00:16:31.066Z,12.57
2023-05-11T00:19:35.080Z,12.57
2023-05-11T00:22:37.735Z,12.55
2023-05-11T00:25:40.684Z,12.55
2023-05-11T00:28:43.380Z,12.57
2023-05-11T00:31:48.003Z,12.54
2023-05-11T00:34:52.083Z,12.56
2023-05-11T00:37:54.756Z,12.56
2023-05-11T00:40:57.403Z,12.52
2023-05-11T00:44:00.050Z,12.55
2023-05-11T00:47:03.062Z,12.55
2023-05-11T00:50:09.327Z,12.54
2023-05-11T00:53:13.589Z,12.55
2023-05-11T00:56:16.451Z,12.54
2023-05-11T00:59:19.770Z,12.52
2023-05-11T01:02:22.592Z,12.49
2023-05-11T01:05:33.226Z,12.51
2023-05-11T01:08:43.047Z,12.47
2023-05-11T01:11:52.668Z,12.48
2023-05-11T01:15:02.676Z,12.47
2023-05-11T01:18:16.206Z,12.44
2023-05-11T01:21:20.411Z,12.45
2023-05-11T01:24:38.643Z,12.39
2023-05-11T01:27:58.268Z,12.37
2023-05-11T01:31:10.040Z,12.38
2023-05-11T01:34:15.995Z,12.38
2023-05-11T01:37:22.518Z,12.34
2023-05-11T01:40:33.010Z,12.34
2023-05-11T01:43:37.730Z,12.31
2023-05-11T01:46:50.081Z,12.26
2023-05-11T01:49:54.700Z,12.23
2023-05-11T01:52:57.840Z,12.21
2023-05-11T01:56:03.009Z,12.21
2023-05-11T01:59:06.827Z,12.21
2023-05-11T02:02:12.274Z,12.16
2023-05-11T02:05:19.512Z,12.12
2023-05-11T02:08:23.077Z,12.12
2023-05-11T02:11:28.951Z,12.11
2023-05-11T02:14:34.943Z,12.10
2023-05-11T02:17:40.596Z,12.05
2023-05-11T02:20:45.539Z,12.06
2023-05-11T02:23:49.955Z,12.06
2023-05-11T02:26:53.199Z,12.02
2023-05-11T02:29:55.981Z,12.02
2023-05-11T02:33:07.643Z,11.99
2023-05-11T02:36:11.377Z,11.97
2023-05-11T02:39:18.402Z,11.98
2023-05-11T02:42:23.333Z,11.92
2023-05-11T02:45:32.040Z,11.91
2023-05-11T02:48:41.621Z,11.85
2023-05-11T02:51:46.858Z,11.86
2023-05-11T02:54:51.417Z,11.85
2023-05-11T02:57:55.188Z,11.85
2023-05-11T03:00:58.689Z,11.83
2023-05-11T03:04:05.730Z,11.82
2023-05-11T03:07:09.792Z,11.78
2023-05-11T03:10:12.525Z,11.79
2023-05-11T03:13:16.637Z,11.76
2023-05-11T03:16:21.260Z,11.73
2023-05-11T03:19:27.705Z,11.73
2023-05-11T03:22:32.675Z,11.75
2023-05-11T03:25:36.332Z,11.73
2023-05-11T03:28:40.045Z,11.71
2023-05-11T03:31:42.757Z,11.71
2023-05-11T03:34:46.852Z,11.72
2023-05-11T03:37:51.265Z,11.72
2023-05-11T03:40:55.884Z,11.74
2023-05-11T03:44:01.319Z,11.76
2023-05-11T03:47:05.520Z,11.76
2023-05-11T03:50:10.884Z,11.75
2023-05-11T03:53:16.710Z,11.77
2023-05-11T03:56:19.489Z,11.78
2023-05-11T03:59:22.323Z,11.81
2023-05-11T04:02:25.309Z,11.76
2023-05-11T04:05:29.418Z,11.88
2023-05-11T04:08:39.309Z,11.93
2023-05-11T04:11:41.930Z,11.97
2023-05-11T04:14:44.638Z,11.94
2023-05-11T04:17:47.373Z,11.95
2023-05-11T04:20:51.452Z,11.99
2023-05-11T04:23:54.099Z,11.98
2023-05-11T04:26:57.554Z,12.01
2023-05-11T04:30:00.239Z,12.02
2023-05-11T04:33:03.620Z,12.05
2023-05-11T04:36:11.195Z,12.08
2023-05-11T04:39:14.756Z,12.08
2023-05-11T04:42:18.045Z,12.11
2023-05-11T04:45:20.878Z,12.12
2023-05-11T04:48:23.556Z,12.08
2023-05-11T04:51:27.597Z,12.07
2023-05-11T04:54:31.140Z,12.13
2023-05-11T04:57:34.671Z,12.19
2023-05-11T05:00:37.489Z,12.29
2023-05-11T05:03:40.806Z,12.31
2023-05-11T05:06:44.877Z,12.35
2023-05-11T05:09:47.635Z,12.40
2023-05-11T05:12:50.455Z,12.42
2023-05-11T05:15:53.110Z,12.47
2023-05-11T05:18:55.877Z,12.50
2023-05-11T05:22:00.150Z,12.56
2023-05-11T05:25:03.028Z,12.61
2023-05-11T05:28:05.770Z,12.68
2023-05-11T05:31:08.522Z,12.72
2023-05-11T05:34:11.853Z,12.78
2023-05-11T05:37:17.231Z,12.82
2023-05-11T05:40:20.470Z,12.89
2023-05-11T05:43:23.416Z,12.82
2023-05-11T05:46:26.133Z,12.86
2023-05-11T05:49:28.873Z,13.10
2023-05-11T05:52:32.844Z,13.19
2023-05-11T05:55:35.520Z,13.26
2023-05-11T05:58:38.296Z,13.35
2023-05-11T06:01:45.565Z,13.45
2023-05-11T06:04:48.285Z,13.57
2023-05-11T06:08:08.457Z,13.66
2023-05-11T06:11:12.272Z,13.78
2023-05-11T06:14:15.062Z,13.86
2023-05-11T06:17:20.809Z,13.94
2023-05-11T06:20:24.291Z,14.02
2023-05-11T06:23:28.441Z,14.06
2023-05-11T06:26:31.111Z,14.16
2023-05-11T06:29:33.848Z,14.23
2023-05-11T06:32:36.560Z,14.34
2023-05-11T06:35:39.626Z,14.46
2023-05-11T06:38:43.783Z,14.57
2023-05-11T06:41:46.517Z,14.73
2023-05-11T06:44:49.210Z,14.83
2023-05-11T06:47:51.990Z,14.90
2023-05-11T06:50:54.708Z,14.95
2023-05-11T06:53:58.773Z,15.01
2023-05-11T06:57:03.579Z,15.08
2023-05-11T07:00:07.803Z,15.15
2023-05-11T07:03:10.541Z,15.19
2023-05-11T07:06:13.477Z,15.37
2023-05-11T07:09:17.656Z,15.48
2023-05-11T07:12:20.401Z,15.57
2023-05-11T07:15:23.482Z,15.64
2023-05-11T07:18:26.170Z,15.71
2023-05-11T07:21:28.917Z,15.80
2023-05-11T07:24:33.018Z,15.90
2023-05-11T07:27:35.828Z,15.99
2023-05-11T07:30:38.611Z,16.01
2023-05-11T07:33:41.311Z,16.09
2023-05-11T07:36:43.961Z,16.15
2023-05-11T07:39:48.083Z,16.22
2023-05-11T07:42:51.025Z,16.28
2023-05-11T07:45:59.912Z,16.26
2023-05-11T07:49:14.636Z,16.37
2023-05-11T07:52:23.115Z,16.46
2023-05-11T07:55:27.917Z,16.52
2023-05-11T07:58:30.653Z,16.58
2023-05-11T08:01:33.450Z,16.65
2023-05-11T08:04:36.416Z,16.70
2023-05-11T08:07:41.199Z,16.83
2023-05-11T08:10:45.961Z,16.87
2023-05-11T08:13:48.612Z,16.98
2023-05-11T08:16:52.519Z,17.07
2023-05-11T08:19:57.781Z,17.15
2023-05-11T08:23:04.111Z,17.24
2023-05-11T08:26:08.281Z,17.26
2023-05-11T08:29:12.548Z,17.27
2023-05-11T08:32:18.318Z,17.33
2023-05-11T08:35:21.710Z,17.37
2023-05-11T08:38:25.016Z,17.41
2023-05-11T08:41:29.702Z,17.47
2023-05-11T08:44:34.120Z,17.53
2023-05-11T08:47:38.007Z,17.57
2023-05-11T08:50:40.793Z,17.51
2023-05-11T08:53:43.553Z,17.37
2023-05-11T08:56:49.126Z,17.46
2023-05-11T08:59:53.095Z,17.69
2023-05-11T09:02:57.562Z,17.91
2023-05-11T09:06:02.752Z,18.11
2023-05-11T09:09:05.550Z,18.33
2023-05-11T09:12:10.861Z,18.55
2023-05-11T09:15:13.658Z,18.76
2023-05-11T09:18:18.763Z,18.85
2023-05-11T09:21:21.565Z,18.81
2023-05-11T09:24:24.296Z,18.91
2023-05-11T09:27:28.327Z,19.07
2023-05-11T09:30:30.985Z,19.10
2023-05-11T09:33:33.725Z,19.20
2023-05-11T09:36:36.449Z,19.32
2023-05-11T09:39:52.773Z,19.46
2023-05-11T09:43:03.636Z,19.61
2023-05-11T09:46:08.000Z,19.70
2023-05-11T09:49:11.956Z,19.72
2023-05-11T09:52:18.668Z,19.74
2023-05-11T09:55:27.601Z,19.80
2023-05-11T09:58:49.140Z,19.92
2023-05-11T10:01:51.894Z,19.98
2023-05-11T10:04:56.409Z,20.04
2023-05-11T10:08:00.133Z,20.08
2023-05-11T10:11:03.848Z,20.10
2023-05-11T10:14:09.862Z,20.09
2023-05-11T10:17:14.586Z,20.00
2023-05-11T10:20:17.932Z,20.01
2023-05-11T10:23:22.250Z,20.11
2023-05-11T10:26:26.500Z,20.15
2023-05-11T10:29:31.294Z,20.16
2023-05-11T10:32:37.947Z,20.21
2023-05-11T10:35:41.684Z,20.28
2023-05-11T10:38:46.781Z,20.51
2023-05-11T10:42:03.030Z,20.71
2023-05-11T10:45:17.012Z,20.86
2023-05-11T10:48:54.888Z,20.91
2023-05-11T10:52:17.298Z,20.79
2023-05-11T10:55:28.660Z,20.39
2023-05-11T10:58:47.083Z,20.22
2023-05-11T11:01:54.880Z,20.29
2023-05-11T11:04:58.933Z,20.38
2023-05-11T11:08:04.032Z,20.56
2023-05-11T11:11:29.939Z,20.66
2023-05-11T11:14:56.515Z,20.75
2023-05-11T11:18:24.659Z,20.86
2023-05-11T11:21:41.199Z,20.98
2023-05-11T11:24:45.902Z,20.90
2023-05-11T11:28:00.013Z,21.04
2023-05-11T11:31:24.408Z,21.05
2023-05-11T11:34:38.868Z,21.10
2023-05-11T11:38:02.120Z,21.18
2023-05-11T11:41:09.207Z,21.26
2023-05-11T11:44:21.983Z,21.20
2023-05-11T11:47:26.266Z,21.22
2023-05-11T11:50:30.781Z,21.26
2023-05-11T11:54:06.662Z,21.30
2023-05-11T11:57:44.134Z,21.32
2023-05-11T12:00:49.129Z,21.43
2023-05-11T12:04:12.953Z,21.47
2023-05-11T12:07:21.354Z,21.43
2023-05-11T12:10:24.217Z,21.07
2023-05-11T12:13:28.412Z,20.95
2023-05-11T12:16:33.222Z,20.87
2023-05-11T12:19:36.732Z,20.76
2023-05-11T12:22:41.184Z,20.67
2023-05-11T12:25:43.861Z,20.56
2023-05-11T12:28:49.684Z,20.45
2023-05-11T12:31:55.379Z,20.35
2023-05-11T12:34:59.227Z,20.29
2023-05-11T12:38:11.995Z,20.40
2023-05-11T12:41:21.829Z,20.27
2023-05-11T12:44:26.543Z,20.14
2023-05-11T12:47:32.816Z,20.05
2023-05-11T12:50:41.092Z,20.15
2023-05-11T12:53:45.114Z,20.32
2023-05-11T12:56:48.888Z,20.47
2023-05-11T13:00:07.274Z,20.65
2023-05-11T13:03:11.431Z,20.38
2023-05-11T13:06:15.748Z,20.20
2023-05-11T13:09:25.159Z,20.01
2023-05-11T13:12:32.043Z,19.63
2023-05-11T13:15:35.528Z,19.13
2023-05-11T13:18:38.566Z,18.97
2023-05-11T13:21:41.344Z,18.94
2023-05-11T13:24:45.549Z,18.67
2023-05-11T13:27:48.354Z,18.62
2023-05-11T13:30:52.318Z,18.74
2023-05-11T13:33:55.334Z,18.63
2023-05-11T13:36:58.050Z,18.56
2023-05-11T13:40:02.713Z,18.61
2023-05-11T13:43:05.760Z,18.55
2023-05-11T13:46:08.482Z,18.35
2023-05-11T13:49:11.363Z,18.16
2023-05-11T13:52:14.261Z,18.12
2023-05-11T13:55:20.227Z,18.00
2023-05-11T13:58:23.106Z,17.66
2023-05-11T14:01:26.456Z,17.76
2023-05-11T14:04:29.172Z,17.89
2023-05-11T14:07:45.601Z,17.80
2023-05-11T14:10:51.000Z,17.92
2023-05-11T14:13:53.909Z,17.86
2023-05-11T14:16:56.784Z,17.65
2023-05-11T14:19:59.459Z,17.81
2023-05-11T14:23:02.735Z,17.88
2023-05-11T14:26:06.826Z,18.02
2023-05-11T14:29:09.566Z,18.08
2023-05-11T14:32:19.977Z,18.20
2023-05-11T14:35:23.263Z,18.33
2023-05-11T14:38:25.951Z,18.45
2023-05-11T14:41:29.959Z,18.55
2023-05-11T14:44:32.854Z,18.55
2023-05-11T14:47:35.680Z,18.47
2023-05-11T14:50:38.780Z,18.47
2023-05-11T14:53:41.638Z,18.51
2023-05-11T14:56:51.241Z,18.60
2023-05-11T15:00:00.185Z,18.72
2023-05-11T15:03:04.122Z,18.81
2023-05-11T15:06:07.529Z,18.80
2023-05-11T15:09:10.330Z,18.83
2023-05-11T15:12:14.361Z,18.85
2023-05-11T15:15:18.258Z,18.86
2023-05-11T15:18:21.169Z,18.88
2023-05-11T15:21:23.862Z,18.88
2023-05-11T15:24:26.549Z,18.83
2023-05-11T15:27:31.130Z,18.76
2023-05-11T15:30:33.841Z,18.62
2023-05-11T15:33:36.609Z,18.51
2023-05-11T15:36:40.308Z,18.48
2023-05-11T15:39:43.128Z,18.44
2023-05-11T15:42:49.036Z,18.41
2023-05-11T15:45:51.785Z,18.46
2023-05-11T15:48:55.839Z,18.43
2023-05-11T15:52:00.292Z,18.26
2023-05-11T15:55:03.773Z,18.15
2023-05-11T15:58:09.195Z,18.15
2023-05-11T16:01:12.095Z,18.12
2023-05-11T16:04:14.807Z,17.98
2023-05-11T16:07:17.558Z,17.91
2023-05-11T16:10:20.534Z,17.88
2023-05-11T16:13:24.820Z,17.82
2023-05-11T16:16:28.723Z,17.73
2023-05-11T16:19:31.495Z,17.61
2023-05-11T16:22:36.040Z,17.58
2023-05-11T16:25:38.930Z,17.44
2023-05-11T16:28:43.746Z,17.31
2023-05-11T16:31:46.484Z,17.27
2023-05-11T16:34:49.469Z,17.21
2023-05-11T16:37:52.520Z,17.21
2023-05-11T16:40:55.361Z,17.16
2023-05-11T16:43:59.529Z,17.17
2023-05-11T16:47:02.194Z,17.18
2023-05-11T16:50:05.223Z,17.13
2023-05-11T16:53:08.278Z,17.10
2023-05-11T16:56:11.826Z,17.11
2023-05-11T16:59:16.113Z,17.06
2023-05-11T17:02:20.001Z,17.05
2023-05-11T17:05:23.137Z,17.04
2023-05-11T17:08:25.826Z,16.98
2023-05-11T17:11:29.343Z,16.95
2023-05-11T17:14:33.504Z,16.88
2023-05-11T17:17:36.912Z,16.84
2023-05-11T17:20:39.694Z,16.77
2023-05-11T17:23:43.525Z,16.74
2023-05-11T17:26:48.284Z,16.79
2023-05-11T17:29:52.932Z,16.68
2023-05-11T17:32:56.285Z,16.50
2023-05-11T17:35:59.211Z,16.44
2023-05-11T17:39:02.678Z,16.40
2023-05-11T17:42:05.732Z,16.37
2023-05-11T17:45:11.433Z,16.25
2023-05-11T17:48:14.171Z,15.83
2023-05-11T17:51:16.986Z,15.58
2023-05-11T17:54:19.782Z,15.40
2023-05-11T17:57:25.626Z,15.38
2023-05-11T18:00:30.092Z,15.15
2023-05-11T18:03:32.880Z,14.96
2023-05-11T18:06:36.325Z,14.96
2023-05-11T18:09:39.007Z,14.99
2023-05-11T18:12:42.428Z,15.03
2023-05-11T18:15:47.333Z,15.10
2023-05-11T18:18:50.123Z,15.12
2023-05-11T18:21:53.189Z,15.18
2023-05-11T18:24:55.886Z,15.21
2023-05-11T18:27:59.247Z,15.21
2023-05-11T18:31:04.028Z,15.17
2023-05-11T18:34:07.340Z,15.24
2023-05-11T18:37:10.206Z,15.27
2023-05-11T18:40:13.718Z,15.30
2023-05-11T18:43:16.439Z,15.29
2023-05-11T18:46:21.515Z,15.25
2023-05-11T18:49:24.769Z,15.26
2023-05-11T18:52:27.593Z,15.27
2023-05-11T18:55:35.469Z,15.24
2023-05-11T18:58:41.153Z,15.22
2023-05-11T19:01:48.021Z,15.23
2023-05-11T19:04:51.425Z,15.04
2023-05-11T19:07:54.207Z,15.11
2023-05-11T19:10:56.984Z,15.06
2023-05-11T19:13:59.700Z,15.04
2023-05-11T19:17:04.624Z,14.97
2023-05-11T19:20:09.397Z,14.94
2023-05-11T19:23:12.128Z,14.96
2023-05-11T19:26:14.970Z,14.91
2023-05-11T19:29:19.487Z,15.00
2023-05-11T19:32:23.885Z,15.00
2023-05-11T19:35:28.255Z,14.97
2023-05-11T19:38:31.110Z,14.98
2023-05-11T19:41:34.308Z,14.98
2023-05-11T19:44:43.211Z,15.00
2023-05-11T19:47:47.535Z,14.98
2023-05-11T19:50:50.283Z,14.97
2023-05-11T19:53:53.776Z,14.98
2023-05-11T19:56:59.809Z,14.98
2023-05-11T20:00:05.466Z,15.00
2023-05-11T20:03:09.635Z,15.01
2023-05-11T20:06:12.410Z,15.01
2023-05-11T20:09:15.077Z,15.00
2023-05-11T20:12:17.799Z,14.99
2023-05-11T20:15:21.138Z,14.98
2023-05-11T20:18:25.239Z,14.98
2023-05-11T20:21:28.175Z,14.94
2023-05-11T20:24:31.186Z,14.87
2023-05-11T20:27:33.946Z,14.91
2023-05-11T20:30:37.307Z,14.88
2023-05-11T20:36:53.707Z,14.84
2023-05-11T20:39:56.410Z,14.80
2023-05-11T20:42:59.092Z,14.79
2023-05-11T20:46:03.841Z,14.78
2023-05-11T20:49:08.025Z,14.77
2023-05-11T20:52:11.167Z,14.69
2023-05-11T20:55:13.870Z,14.76
2023-05-11T20:58:16.512Z,14.75
2023-05-11T21:01:19.363Z,14.69
2023-05-11T21:04:23.468Z,14.73
2023-05-11T21:07:28.169Z,14.73
2023-05-11T21:10:30.913Z,14.74
2023-05-11T21:13:33.548Z,14.71
2023-05-11T21:16:36.194Z,14.70
2023-05-11T21:19:40.201Z,14.71
2023-05-11T21:22:42.848Z,14.69
2023-05-11T21:25:45.634Z,14.69
2023-05-11T21:28:48.250Z,14.71
2023-05-11T21:31:50.943Z,14.69
2023-05-11T21:34:55.084Z,14.68
2023-05-11T21:37:57.732Z,14.66
2023-05-11T21:41:00.454Z,14.45
2023-05-11T21:44:03.143Z,14.63
2023-05-11T21:47:06.507Z,14.60
2023-05-11T21:50:11.764Z,14.61
2023-05-11T21:53:14.454Z,14.57
2023-05-11T21:56:17.267Z,14.54
2023-05-11T21:59:20.186Z,14.54
2023-05-11T22:02:22.968Z,14.38
2023-05-11T22:05:27.046Z,14.51
2023-05-11T22:08:29.788Z,14.48
2023-05-11T22:11:34.605Z,14.46
2023-05-11T22:14:37.315Z,14.45
2023-05-11T22:17:40.442Z,14.42
2023-05-11T22:20:44.516Z,14.40
2023-05-11T22:23:47.264Z,14.41
2023-05-11T22:26:49.913Z,14.38
2023-05-11T22:29:53.217Z,14.38
2023-05-11T22:32:55.946Z,14.36
2023-05-11T22:35:59.974Z,14.33
2023-05-11T22:39:02.815Z,14.29
2023-05-11T22:42:05.766Z,14.31
2023-05-11T22:45:09.594Z,14.30
2023-05-11T22:48:12.315Z,14.31
2023-05-11T22:51:16.643Z,14.31
2023-05-11T22:54:19.358Z,14.25
2023-05-11T22:57:24.147Z,14.23
2023-05-11T23:00:27.408Z,14.23
2023-05-11T23:03:30.288Z,14.22
2023-05-11T23:06:34.606Z,14.14
2023-05-11T23:09:37.317Z,14.08
2023-05-11T23:12:40.184Z,14.05
2023-05-11T23:15:42.869Z,14.02
2023-05-11T23:18:46.922Z,14.02
2023-05-11T23:21:51.194Z,13.97
2023-05-11T23:24:56.371Z,13.88
2023-05-11T23:27:59.248Z,13.80
2023-05-11T23:31:02.519Z,13.74
2023-05-11T23:34:05.193Z,13.69
2023-05-11T23:37:09.304Z,13.63
2023-05-11T23:40:12.602Z,13.64
2023-05-11T23:43:15.730Z,13.68
2023-05-11T23:46:18.413Z,13.61
2023-05-11T23:49:21.076Z,13.58
2023-05-11T23:52:25.276Z,13.62
2023-05-11T23:55:27.937Z,13.62
2023-05-11T23:58:30.657Z,13.61
